sensor_id;sensor_type;location;lat;lon;timestamp;temperature;humidity
37974;DHT22;23796;51.458;7.000;2023-07-28T00:00:17;18.00;99.90
37974;DHT22;23796;51.458;7.000;2023-07-28T00:02:42;18.00;99.90
37974;DHT22;23796;51.458;7.000;2023-07-28T00:05:10;18.00;99.90
37974;DHT22;23796;51.458;7.000;2023-07-28T00:07:36;18.00;99.90
37974;DHT22;23796;51.458;7.000;2023-07-28T00:10:02;18.00;99.90
37974;DHT22;23796;51.458;7.000;2023-07-28T00:12:27;17.90;99.90
37974;DHT22;23796;51.458;7.000;2023-07-28T00:14:53;17.90;99.90
37974;DHT22;23796;51.458;7.000;2023-07-28T00:19:51;18.00;99.90
37974;DHT22;23796;51.458;7.000;2023-07-28T00:22:19;18.10;99.90
37974;DHT22;23796;51.458;7.000;2023-07-28T00:24:44;18.10;99.90
37974;DHT22;23796;51.458;7.000;2023-07-28T00:27:12;18.10;99.90
37974;DHT22;23796;51.458;7.000;2023-07-28T00:29:40;18.10;99.90
37974;DHT22;23796;51.458;7.000;2023-07-28T00:32:09;18.10;99.90
37974;DHT22;23796;51.458;7.000;2023-07-28T00:34:34;18.10;99.90
37974;DHT22;23796;51.458;7.000;2023-07-28T00:37:00;18.10;99.90
37974;DHT22;23796;51.458;7.000;2023-07-28T00:39:25;18.00;99.90
37974;DHT22;23796;51.458;7.000;2023-07-28T00:41:51;18.10;99.90
37974;DHT22;23796;51.458;7.000;2023-07-28T00:44:19;18.10;99.90
37974;DHT22;23796;51.458;7.000;2023-07-28T00:46:45;18.10;99.90
37974;DHT22;23796;51.458;7.000;2023-07-28T00:49:10;18.10;99.90
37974;DHT22;23796;51.458;7.000;2023-07-28T00:51:37;18.10;99.90
37974;DHT22;23796;51.458;7.000;2023-07-28T00:54:03;18.10;99.90
37974;DHT22;23796;51.458;7.000;2023-07-28T00:56:31;18.20;99.90
37974;DHT22;23796;51.458;7.000;2023-07-28T00:58:57;18.10;99.90
37974;DHT22;23796;51.458;7.000;2023-07-28T01:01:23;18.20;99.90
37974;DHT22;23796;51.458;7.000;2023-07-28T01:03:50;18.20;99.90
37974;DHT22;23796;51.458;7.000;2023-07-28T01:08:59;18.10;99.90
37974;DHT22;23796;51.458;7.000;2023-07-28T01:11:29;18.10;99.90
37974;DHT22;23796;51.458;7.000;2023-07-28T01:13:54;18.20;99.90
37974;DHT22;23796;51.458;7.000;2023-07-28T01:16:20;18.20;99.90
37974;DHT22;23796;51.458;7.000;2023-07-28T01:18:46;18.10;99.90
37974;DHT22;23796;51.458;7.000;2023-07-28T01:21:20;18.10;99.90
37974;DHT22;23796;51.458;7.000;2023-07-28T01:24:11;18.10;99.90
37974;DHT22;23796;51.458;7.000;2023-07-28T01:26:39;18.10;99.90
37974;DHT22;23796;51.458;7.000;2023-07-28T01:29:08;18.10;99.90
37974;DHT22;23796;51.458;7.000;2023-07-28T01:31:39;18.10;99.90
37974;DHT22;23796;51.458;7.000;2023-07-28T01:34:07;18.10;99.90
37974;DHT22;23796;51.458;7.000;2023-07-28T01:36:35;18.10;99.90
37974;DHT22;23796;51.458;7.000;2023-07-28T01:39:00;18.10;99.90
37974;DHT22;23796;51.458;7.000;2023-07-28T01:41:26;18.10;99.90
37974;DHT22;23796;51.458;7.000;2023-07-28T01:43:52;18.10;99.90
37974;DHT22;23796;51.458;7.000;2023-07-28T01:46:21;18.10;99.90
37974;DHT22;23796;51.458;7.000;2023-07-28T01:48:46;18.10;99.90
37974;DHT22;23796;51.458;7.000;2023-07-28T01:51:14;18.10;99.90
37974;DHT22;23796;51.458;7.000;2023-07-28T01:53:40;18.10;99.90
37974;DHT22;23796;51.458;7.000;2023-07-28T01:56:05;18.10;99.90
37974;DHT22;23796;51.458;7.000;2023-07-28T01:58:31;18.10;99.90
37974;DHT22;23796;51.458;7.000;2023-07-28T02:01:01;18.10;99.90
37974;DHT22;23796;51.458;7.000;2023-07-28T02:03:26;18.10;99.90
37974;DHT22;23796;51.458;7.000;2023-07-28T02:05:52;18.20;99.90
37974;DHT22;23796;51.458;7.000;2023-07-28T02:08:18;18.20;99.90
37974;DHT22;23796;51.458;7.000;2023-07-28T02:10:44;18.20;99.90
37974;DHT22;23796;51.458;7.000;2023-07-28T02:13:10;18.10;99.90
37974;DHT22;23796;51.458;7.000;2023-07-28T02:15:35;18.10;99.90
37974;DHT22;23796;51.458;7.000;2023-07-28T02:18:01;18.10;99.90
37974;DHT22;23796;51.458;7.000;2023-07-28T02:20:27;18.20;99.90
37974;DHT22;23796;51.458;7.000;2023-07-28T02:22:52;18.20;99.90
37974;DHT22;23796;51.458;7.000;2023-07-28T02:25:20;18.20;99.90
37974;DHT22;23796;51.458;7.000;2023-07-28T02:27:46;18.20;99.90
37974;DHT22;23796;51.458;7.000;2023-07-28T02:30:11;18.20;99.90
37974;DHT22;23796;51.458;7.000;2023-07-28T02:32:37;18.20;99.90
37974;DHT22;23796;51.458;7.000;2023-07-28T02:35:05;18.20;99.90
37974;DHT22;23796;51.458;7.000;2023-07-28T02:37:31;18.30;99.90
37974;DHT22;23796;51.458;7.000;2023-07-28T02:39:56;18.30;99.90
37974;DHT22;23796;51.458;7.000;2023-07-28T02:42:24;18.20;99.90
37974;DHT22;23796;51.458;7.000;2023-07-28T02:44:50;18.20;99.90
37974;DHT22;23796;51.458;7.000;2023-07-28T02:47:16;18.30;99.90
37974;DHT22;23796;51.458;7.000;2023-07-28T02:49:41;18.30;99.90
37974;DHT22;23796;51.458;7.000;2023-07-28T02:52:10;18.20;99.90
37974;DHT22;23796;51.458;7.000;2023-07-28T02:54:35;18.20;99.90
37974;DHT22;23796;51.458;7.000;2023-07-28T02:57:03;18.30;99.90
37974;DHT22;23796;51.458;7.000;2023-07-28T02:59:29;18.30;99.90
37974;DHT22;23796;51.458;7.000;2023-07-28T03:01:54;18.30;99.90
37974;DHT22;23796;51.458;7.000;2023-07-28T03:04:21;18.30;99.90
37974;DHT22;23796;51.458;7.000;2023-07-28T03:06:47;18.30;99.90
37974;DHT22;23796;51.458;7.000;2023-07-28T03:09:13;18.30;99.90
37974;DHT22;23796;51.458;7.000;2023-07-28T03:11:39;18.30;99.90
37974;DHT22;23796;51.458;7.000;2023-07-28T03:14:04;18.20;99.90
37974;DHT22;23796;51.458;7.000;2023-07-28T03:16:30;18.20;99.90
37974;DHT22;23796;51.458;7.000;2023-07-28T03:18:57;18.20;99.90
37974;DHT22;23796;51.458;7.000;2023-07-28T03:21:23;18.10;99.90
37974;DHT22;23796;51.458;7.000;2023-07-28T03:23:51;18.10;99.90
37974;DHT22;23796;51.458;7.000;2023-07-28T03:26:19;18.20;99.90
37974;DHT22;23796;51.458;7.000;2023-07-28T03:28:45;18.20;99.90
37974;DHT22;23796;51.458;7.000;2023-07-28T03:31:13;18.20;99.90
37974;DHT22;23796;51.458;7.000;2023-07-28T03:33:38;18.30;99.90
37974;DHT22;23796;51.458;7.000;2023-07-28T03:36:04;18.30;99.90
37974;DHT22;23796;51.458;7.000;2023-07-28T03:38:29;18.30;99.90
37974;DHT22;23796;51.458;7.000;2023-07-28T03:40:57;18.30;99.90
37974;DHT22;23796;51.458;7.000;2023-07-28T03:43:25;18.30;99.90
37974;DHT22;23796;51.458;7.000;2023-07-28T03:45:51;18.40;99.90
37974;DHT22;23796;51.458;7.000;2023-07-28T03:48:19;18.40;99.90
37974;DHT22;23796;51.458;7.000;2023-07-28T03:50:44;18.40;99.90
37974;DHT22;23796;51.458;7.000;2023-07-28T03:53:10;18.40;99.90
37974;DHT22;23796;51.458;7.000;2023-07-28T03:55:38;18.40;99.90
37974;DHT22;23796;51.458;7.000;2023-07-28T03:58:03;18.40;99.90
37974;DHT22;23796;51.458;7.000;2023-07-28T04:00:29;18.40;99.90
37974;DHT22;23796;51.458;7.000;2023-07-28T04:02:55;18.40;99.90
37974;DHT22;23796;51.458;7.000;2023-07-28T04:05:21;18.40;99.90
37974;DHT22;23796;51.458;7.000;2023-07-28T04:07:46;18.40;99.90
37974;DHT22;23796;51.458;7.000;2023-07-28T04:10:12;18.40;99.90
37974;DHT22;23796;51.458;7.000;2023-07-28T04:12:37;18.40;99.90
37974;DHT22;23796;51.458;7.000;2023-07-28T04:15:03;18.40;99.90
37974;DHT22;23796;51.458;7.000;2023-07-28T04:17:29;18.40;99.90
37974;DHT22;23796;51.458;7.000;2023-07-28T04:19:57;18.50;99.90
37974;DHT22;23796;51.458;7.000;2023-07-28T04:22:23;18.40;99.90
37974;DHT22;23796;51.458;7.000;2023-07-28T04:24:51;18.40;99.90
37974;DHT22;23796;51.458;7.000;2023-07-28T04:27:16;18.40;99.90
37974;DHT22;23796;51.458;7.000;2023-07-28T04:29:42;18.40;99.90
37974;DHT22;23796;51.458;7.000;2023-07-28T04:32:08;18.50;99.90
37974;DHT22;23796;51.458;7.000;2023-07-28T04:34:34;18.50;99.90
37974;DHT22;23796;51.458;7.000;2023-07-28T04:36:59;18.50;99.90
37974;DHT22;23796;51.458;7.000;2023-07-28T04:39:29;18.50;99.90
37974;DHT22;23796;51.458;7.000;2023-07-28T04:41:55;18.60;99.90
37974;DHT22;23796;51.458;7.000;2023-07-28T04:44:20;18.60;99.90
37974;DHT22;23796;51.458;7.000;2023-07-28T04:46:46;18.70;99.90
37974;DHT22;23796;51.458;7.000;2023-07-28T04:49:14;18.70;99.90
37974;DHT22;23796;51.458;7.000;2023-07-28T04:51:40;18.70;99.90
37974;DHT22;23796;51.458;7.000;2023-07-28T04:54:05;18.70;99.90
37974;DHT22;23796;51.458;7.000;2023-07-28T04:56:31;18.70;99.90
37974;DHT22;23796;51.458;7.000;2023-07-28T04:58:56;18.70;99.90
37974;DHT22;23796;51.458;7.000;2023-07-28T05:01:24;18.70;99.90
37974;DHT22;23796;51.458;7.000;2023-07-28T05:03:50;18.70;99.90
37974;DHT22;23796;51.458;7.000;2023-07-28T05:06:15;18.70;99.90
37974;DHT22;23796;51.458;7.000;2023-07-28T05:08:41;18.80;99.90
37974;DHT22;23796;51.458;7.000;2023-07-28T05:11:06;18.90;99.90
37974;DHT22;23796;51.458;7.000;2023-07-28T05:13:32;18.90;99.90
37974;DHT22;23796;51.458;7.000;2023-07-28T05:15:58;18.90;99.90
37974;DHT22;23796;51.458;7.000;2023-07-28T05:18:23;19.00;99.90
37974;DHT22;23796;51.458;7.000;2023-07-28T05:20:49;19.00;99.90
37974;DHT22;23796;51.458;7.000;2023-07-28T05:23:14;19.00;99.90
37974;DHT22;23796;51.458;7.000;2023-07-28T05:25:40;19.10;99.90
37974;DHT22;23796;51.458;7.000;2023-07-28T05:28:08;19.10;99.90
37974;DHT22;23796;51.458;7.000;2023-07-28T05:30:34;19.20;99.90
37974;DHT22;23796;51.458;7.000;2023-07-28T05:32:59;19.20;99.90
37974;DHT22;23796;51.458;7.000;2023-07-28T05:35:25;19.20;99.90
37974;DHT22;23796;51.458;7.000;2023-07-28T05:37:51;19.20;99.90
37974;DHT22;23796;51.458;7.000;2023-07-28T05:40:16;19.10;99.90
37974;DHT22;23796;51.458;7.000;2023-07-28T05:42:44;19.20;99.90
37974;DHT22;23796;51.458;7.000;2023-07-28T05:45:10;19.20;99.90
37974;DHT22;23796;51.458;7.000;2023-07-28T05:47:36;19.20;99.90
37974;DHT22;23796;51.458;7.000;2023-07-28T05:50:02;19.20;99.90
37974;DHT22;23796;51.458;7.000;2023-07-28T05:52:27;19.20;99.90
37974;DHT22;23796;51.458;7.000;2023-07-28T05:54:53;19.10;99.90
37974;DHT22;23796;51.458;7.000;2023-07-28T05:59:49;19.20;99.90
37974;DHT22;23796;51.458;7.000;2023-07-28T06:02:15;19.30;99.90
37974;DHT22;23796;51.458;7.000;2023-07-28T06:04:40;19.30;99.90
37974;DHT22;23796;51.458;7.000;2023-07-28T06:07:06;19.30;99.90
37974;DHT22;23796;51.458;7.000;2023-07-28T06:09:31;19.40;99.90
37974;DHT22;23796;51.458;7.000;2023-07-28T06:11:57;19.40;99.90
37974;DHT22;23796;51.458;7.000;2023-07-28T06:14:23;19.50;99.90
37974;DHT22;23796;51.458;7.000;2023-07-28T06:16:48;19.50;99.90
37974;DHT22;23796;51.458;7.000;2023-07-28T06:19:14;19.40;99.90
37974;DHT22;23796;51.458;7.000;2023-07-28T06:21:42;19.50;99.90
37974;DHT22;23796;51.458;7.000;2023-07-28T06:24:07;19.50;99.90
37974;DHT22;23796;51.458;7.000;2023-07-28T06:26:35;19.60;99.90
37974;DHT22;23796;51.458;7.000;2023-07-28T06:29:01;19.60;99.90
37974;DHT22;23796;51.458;7.000;2023-07-28T06:31:26;19.70;99.90
37974;DHT22;23796;51.458;7.000;2023-07-28T06:33:52;19.60;99.90
37974;DHT22;23796;51.458;7.000;2023-07-28T06:36:17;19.60;99.90
37974;DHT22;23796;51.458;7.000;2023-07-28T06:38:43;19.60;99.90
37974;DHT22;23796;51.458;7.000;2023-07-28T06:41:11;19.70;99.90
37974;DHT22;23796;51.458;7.000;2023-07-28T06:43:36;19.70;99.90
37974;DHT22;23796;51.458;7.000;2023-07-28T06:46:02;19.80;99.90
37974;DHT22;23796;51.458;7.000;2023-07-28T06:48:28;19.80;99.90
37974;DHT22;23796;51.458;7.000;2023-07-28T06:50:53;19.90;99.90
37974;DHT22;23796;51.458;7.000;2023-07-28T06:53:22;19.90;99.90
37974;DHT22;23796;51.458;7.000;2023-07-28T06:55:50;19.90;99.90
37974;DHT22;23796;51.458;7.000;2023-07-28T06:58:15;19.90;99.90
37974;DHT22;23796;51.458;7.000;2023-07-28T07:00:43;19.90;99.90
37974;DHT22;23796;51.458;7.000;2023-07-28T07:03:10;20.00;99.90
37974;DHT22;23796;51.458;7.000;2023-07-28T07:05:36;20.10;99.90
37974;DHT22;23796;51.458;7.000;2023-07-28T07:08:03;20.30;99.90
37974;DHT22;23796;51.458;7.000;2023-07-28T07:10:31;20.40;99.50
37974;DHT22;23796;51.458;7.000;2023-07-28T07:12:57;20.40;99.20
37974;DHT22;23796;51.458;7.000;2023-07-28T07:15:25;20.40;99.10
37974;DHT22;23796;51.458;7.000;2023-07-28T07:17:50;20.30;99.60
37974;DHT22;23796;51.458;7.000;2023-07-28T07:20:16;20.20;99.60
37974;DHT22;23796;51.458;7.000;2023-07-28T07:22:41;20.30;99.40
37974;DHT22;23796;51.458;7.000;2023-07-28T07:25:07;20.40;99.10
37974;DHT22;23796;51.458;7.000;2023-07-28T07:27:33;20.50;98.90
37974;DHT22;23796;51.458;7.000;2023-07-28T07:29:59;20.60;98.60
37974;DHT22;23796;51.458;7.000;2023-07-28T07:32:24;20.60;98.60
37974;DHT22;23796;51.458;7.000;2023-07-28T07:34:50;20.70;98.00
37974;DHT22;23796;51.458;7.000;2023-07-28T07:37:16;20.90;97.60
37974;DHT22;23796;51.458;7.000;2023-07-28T07:39:43;21.00;97.20
37974;DHT22;23796;51.458;7.000;2023-07-28T07:42:10;21.00;97.10
37974;DHT22;23796;51.458;7.000;2023-07-28T07:44:36;21.10;96.70
37974;DHT22;23796;51.458;7.000;2023-07-28T07:47:14;21.20;96.40
37974;DHT22;23796;51.458;7.000;2023-07-28T07:49:40;21.30;96.50
37974;DHT22;23796;51.458;7.000;2023-07-28T07:52:09;21.30;95.70
37974;DHT22;23796;51.458;7.000;2023-07-28T07:54:35;21.30;95.80
37974;DHT22;23796;51.458;7.000;2023-07-28T07:57:02;21.30;96.00
37974;DHT22;23796;51.458;7.000;2023-07-28T07:59:27;21.40;96.20
37974;DHT22;23796;51.458;7.000;2023-07-28T08:01:58;21.40;95.60
37974;DHT22;23796;51.458;7.000;2023-07-28T08:04:26;21.50;95.10
37974;DHT22;23796;51.458;7.000;2023-07-28T08:06:53;21.60;95.20
37974;DHT22;23796;51.458;7.000;2023-07-28T08:09:21;21.50;95.10
37974;DHT22;23796;51.458;7.000;2023-07-28T08:11:47;21.40;95.70
37974;DHT22;23796;51.458;7.000;2023-07-28T08:14:13;21.40;95.80
37974;DHT22;23796;51.458;7.000;2023-07-28T08:16:38;21.30;95.70
37974;DHT22;23796;51.458;7.000;2023-07-28T08:19:06;21.30;96.00
37974;DHT22;23796;51.458;7.000;2023-07-28T08:21:31;21.20;96.10
37974;DHT22;23796;51.458;7.000;2023-07-28T08:24:05;21.30;95.90
37974;DHT22;23796;51.458;7.000;2023-07-28T08:26:30;21.30;95.10
37974;DHT22;23796;51.458;7.000;2023-07-28T08:28:56;21.20;96.10
37974;DHT22;23796;51.458;7.000;2023-07-28T08:31:24;21.30;95.40
37974;DHT22;23796;51.458;7.000;2023-07-28T08:33:50;21.40;95.70
37974;DHT22;23796;51.458;7.000;2023-07-28T08:36:18;21.60;95.50
37974;DHT22;23796;51.458;7.000;2023-07-28T08:38:44;21.50;95.40
37974;DHT22;23796;51.458;7.000;2023-07-28T08:41:10;21.60;94.90
37974;DHT22;23796;51.458;7.000;2023-07-28T08:43:36;21.90;94.50
37974;DHT22;23796;51.458;7.000;2023-07-28T08:46:02;22.20;93.50
37974;DHT22;23796;51.458;7.000;2023-07-28T08:48:29;22.20;93.10
37974;DHT22;23796;51.458;7.000;2023-07-28T08:50:54;22.20;93.50
37974;DHT22;23796;51.458;7.000;2023-07-28T08:53:22;22.40;92.90
37974;DHT22;23796;51.458;7.000;2023-07-28T08:55:48;22.30;92.70
37974;DHT22;23796;51.458;7.000;2023-07-28T08:58:18;22.10;93.50
37974;DHT22;23796;51.458;7.000;2023-07-28T09:00:51;22.00;94.20
37974;DHT22;23796;51.458;7.000;2023-07-28T09:03:18;22.20;93.80
37974;DHT22;23796;51.458;7.000;2023-07-28T09:05:44;22.40;93.00
37974;DHT22;23796;51.458;7.000;2023-07-28T09:08:12;22.50;93.10
37974;DHT22;23796;51.458;7.000;2023-07-28T09:10:47;22.60;92.80
37974;DHT22;23796;51.458;7.000;2023-07-28T09:13:40;22.70;92.50
37974;DHT22;23796;51.458;7.000;2023-07-28T09:16:20;23.10;91.80
37974;DHT22;23796;51.458;7.000;2023-07-28T09:18:46;23.30;90.90
37974;DHT22;23796;51.458;7.000;2023-07-28T09:21:19;23.30;90.60
37974;DHT22;23796;51.458;7.000;2023-07-28T09:23:47;23.20;90.50
37974;DHT22;23796;51.458;7.000;2023-07-28T09:26:14;23.00;90.50
37974;DHT22;23796;51.458;7.000;2023-07-28T09:28:41;22.80;91.00
37974;DHT22;23796;51.458;7.000;2023-07-28T09:31:07;22.50;91.50
37974;DHT22;23796;51.458;7.000;2023-07-28T09:33:34;22.50;93.10
37974;DHT22;23796;51.458;7.000;2023-07-28T09:36:14;22.70;91.90
37974;DHT22;23796;51.458;7.000;2023-07-28T09:38:45;23.00;90.60
37974;DHT22;23796;51.458;7.000;2023-07-28T09:41:13;23.20;90.10
37974;DHT22;23796;51.458;7.000;2023-07-28T09:43:42;23.10;89.80
37974;DHT22;23796;51.458;7.000;2023-07-28T09:46:10;22.90;89.90
37974;DHT22;23796;51.458;7.000;2023-07-28T09:48:38;23.00;90.40
37974;DHT22;23796;51.458;7.000;2023-07-28T09:51:12;23.40;89.70
37974;DHT22;23796;51.458;7.000;2023-07-28T09:53:45;23.30;89.30
37974;DHT22;23796;51.458;7.000;2023-07-28T09:56:15;23.40;88.80
37974;DHT22;23796;51.458;7.000;2023-07-28T09:58:50;23.40;88.30
37974;DHT22;23796;51.458;7.000;2023-07-28T10:01:21;23.30;89.00
37974;DHT22;23796;51.458;7.000;2023-07-28T10:03:49;23.30;88.10
37974;DHT22;23796;51.458;7.000;2023-07-28T10:06:15;23.20;88.60
37974;DHT22;23796;51.458;7.000;2023-07-28T10:08:44;23.40;87.00
37974;DHT22;23796;51.458;7.000;2023-07-28T10:11:14;23.00;88.10
37974;DHT22;23796;51.458;7.000;2023-07-28T10:13:41;23.00;89.10
37974;DHT22;23796;51.458;7.000;2023-07-28T10:16:08;23.20;88.30
37974;DHT22;23796;51.458;7.000;2023-07-28T10:18:35;22.90;88.60
37974;DHT22;23796;51.458;7.000;2023-07-28T10:21:10;23.20;88.30
37974;DHT22;23796;51.458;7.000;2023-07-28T10:23:41;23.50;87.10
37974;DHT22;23796;51.458;7.000;2023-07-28T10:26:07;23.70;86.70
37974;DHT22;23796;51.458;7.000;2023-07-28T10:28:39;23.80;86.90
37974;DHT22;23796;51.458;7.000;2023-07-28T10:31:08;23.70;87.10
37974;DHT22;23796;51.458;7.000;2023-07-28T10:33:38;23.80;86.50
37974;DHT22;23796;51.458;7.000;2023-07-28T10:36:31;23.50;87.20
37974;DHT22;23796;51.458;7.000;2023-07-28T10:39:12;23.80;86.30
37974;DHT22;23796;51.458;7.000;2023-07-28T10:41:40;24.10;85.70
37974;DHT22;23796;51.458;7.000;2023-07-28T10:44:20;24.30;85.00
37974;DHT22;23796;51.458;7.000;2023-07-28T10:46:45;24.20;84.80
37974;DHT22;23796;51.458;7.000;2023-07-28T10:49:16;24.40;84.80
37974;DHT22;23796;51.458;7.000;2023-07-28T10:51:42;24.20;84.00
37974;DHT22;23796;51.458;7.000;2023-07-28T10:54:08;23.80;85.80
37974;DHT22;23796;51.458;7.000;2023-07-28T10:56:33;23.90;85.70
37974;DHT22;23796;51.458;7.000;2023-07-28T10:59:03;24.10;84.80
37974;DHT22;23796;51.458;7.000;2023-07-28T11:01:39;24.30;85.00
37974;DHT22;23796;51.458;7.000;2023-07-28T11:04:15;24.60;84.00
37974;DHT22;23796;51.458;7.000;2023-07-28T11:06:49;24.70;82.80
37974;DHT22;23796;51.458;7.000;2023-07-28T11:09:17;24.80;83.30
37974;DHT22;23796;51.458;7.000;2023-07-28T11:11:44;24.90;82.40
37974;DHT22;23796;51.458;7.000;2023-07-28T11:14:11;24.50;83.50
37974;DHT22;23796;51.458;7.000;2023-07-28T11:16:38;24.50;82.40
37974;DHT22;23796;51.458;7.000;2023-07-28T11:19:11;23.80;84.50
37974;DHT22;23796;51.458;7.000;2023-07-28T11:21:41;23.40;86.60
37974;DHT22;23796;51.458;7.000;2023-07-28T11:24:07;23.60;85.70
37974;DHT22;23796;51.458;7.000;2023-07-28T11:26:39;23.50;87.70
37974;DHT22;23796;51.458;7.000;2023-07-28T11:29:05;23.80;86.30
37974;DHT22;23796;51.458;7.000;2023-07-28T11:31:31;24.00;86.30
37974;DHT22;23796;51.458;7.000;2023-07-28T11:33:58;23.60;86.70
37974;DHT22;23796;51.458;7.000;2023-07-28T11:36:25;23.20;88.60
37974;DHT22;23796;51.458;7.000;2023-07-28T11:38:53;22.80;89.10
37974;DHT22;23796;51.458;7.000;2023-07-28T11:41:20;22.70;90.00
37974;DHT22;23796;51.458;7.000;2023-07-28T11:43:49;22.90;90.30
37974;DHT22;23796;51.458;7.000;2023-07-28T11:46:44;22.90;89.90
37974;DHT22;23796;51.458;7.000;2023-07-28T11:49:16;22.90;90.60
37974;DHT22;23796;51.458;7.000;2023-07-28T11:51:46;22.90;91.90
37974;DHT22;23796;51.458;7.000;2023-07-28T11:54:13;22.60;93.40
37974;DHT22;23796;51.458;7.000;2023-07-28T11:56:43;22.00;94.20
37974;DHT22;23796;51.458;7.000;2023-07-28T11:59:10;22.00;96.80
37974;DHT22;23796;51.458;7.000;2023-07-28T12:02:01;22.20;96.70
37974;DHT22;23796;51.458;7.000;2023-07-28T12:04:29;22.40;97.00
37974;DHT22;23796;51.458;7.000;2023-07-28T12:12:19;23.80;93.20
37974;DHT22;23796;51.458;7.000;2023-07-28T12:14:45;24.00;92.20
37974;DHT22;23796;51.458;7.000;2023-07-28T12:20:01;23.40;93.30
37974;DHT22;23796;51.458;7.000;2023-07-28T12:22:30;23.20;94.40
37974;DHT22;23796;51.458;7.000;2023-07-28T12:24:56;23.20;94.30
37974;DHT22;23796;51.458;7.000;2023-07-28T12:27:24;23.00;95.00
37974;DHT22;23796;51.458;7.000;2023-07-28T12:29:52;23.00;94.70
37974;DHT22;23796;51.458;7.000;2023-07-28T12:32:20;23.00;95.20
37974;DHT22;23796;51.458;7.000;2023-07-28T12:34:45;23.00;92.00
37974;DHT22;23796;51.458;7.000;2023-07-28T12:37:11;23.30;94.30
37974;DHT22;23796;51.458;7.000;2023-07-28T12:39:38;23.60;92.40
37974;DHT22;23796;51.458;7.000;2023-07-28T12:42:10;23.70;92.00
37974;DHT22;23796;51.458;7.000;2023-07-28T12:44:37;23.70;90.80
37974;DHT22;23796;51.458;7.000;2023-07-28T12:47:03;23.70;90.40
37974;DHT22;23796;51.458;7.000;2023-07-28T12:49:29;23.70;89.30
37974;DHT22;23796;51.458;7.000;2023-07-28T12:51:56;23.50;89.30
37974;DHT22;23796;51.458;7.000;2023-07-28T12:54:25;23.50;90.70
37974;DHT22;23796;51.458;7.000;2023-07-28T12:56:51;23.40;88.20
37974;DHT22;23796;51.458;7.000;2023-07-28T12:59:17;23.40;89.90
37974;DHT22;23796;51.458;7.000;2023-07-28T13:01:48;23.60;89.90
37974;DHT22;23796;51.458;7.000;2023-07-28T13:04:13;23.60;89.80
37974;DHT22;23796;51.458;7.000;2023-07-28T13:06:39;23.80;89.30
37974;DHT22;23796;51.458;7.000;2023-07-28T13:09:09;24.00;88.40
37974;DHT22;23796;51.458;7.000;2023-07-28T13:11:34;24.30;87.50
37974;DHT22;23796;51.458;7.000;2023-07-28T13:14:03;24.70;85.90
37974;DHT22;23796;51.458;7.000;2023-07-28T13:16:31;25.10;84.10
37974;DHT22;23796;51.458;7.000;2023-07-28T13:18:59;25.10;83.40
37974;DHT22;23796;51.458;7.000;2023-07-28T13:21:25;25.10;83.90
37974;DHT22;23796;51.458;7.000;2023-07-28T13:23:53;25.30;83.60
37974;DHT22;23796;51.458;7.000;2023-07-28T13:26:21;25.60;82.10
37974;DHT22;23796;51.458;7.000;2023-07-28T13:28:47;25.80;81.20
37974;DHT22;23796;51.458;7.000;2023-07-28T13:31:16;25.90;81.30
37974;DHT22;23796;51.458;7.000;2023-07-28T13:33:42;26.10;79.80
37974;DHT22;23796;51.458;7.000;2023-07-28T13:36:08;26.20;78.60
37974;DHT22;23796;51.458;7.000;2023-07-28T13:38:34;26.20;79.50
37974;DHT22;23796;51.458;7.000;2023-07-28T13:41:00;26.20;80.30
37974;DHT22;23796;51.458;7.000;2023-07-28T13:43:26;26.30;79.40
37974;DHT22;23796;51.458;7.000;2023-07-28T13:45:52;26.30;79.10
37974;DHT22;23796;51.458;7.000;2023-07-28T13:48:20;26.20;78.80
37974;DHT22;23796;51.458;7.000;2023-07-28T13:50:46;26.20;79.20
37974;DHT22;23796;51.458;7.000;2023-07-28T13:53:11;26.10;79.20
37974;DHT22;23796;51.458;7.000;2023-07-28T13:55:37;25.90;80.00
37974;DHT22;23796;51.458;7.000;2023-07-28T13:58:06;26.00;80.00
37974;DHT22;23796;51.458;7.000;2023-07-28T14:00:32;26.30;79.60
37974;DHT22;23796;51.458;7.000;2023-07-28T14:02:58;26.40;78.90
37974;DHT22;23796;51.458;7.000;2023-07-28T14:05:26;26.30;79.20
37974;DHT22;23796;51.458;7.000;2023-07-28T14:07:55;26.10;80.10
37974;DHT22;23796;51.458;7.000;2023-07-28T14:10:22;25.80;80.20
37974;DHT22;23796;51.458;7.000;2023-07-28T14:12:49;25.80;80.50
37974;DHT22;23796;51.458;7.000;2023-07-28T14:15:15;25.70;80.50
37974;DHT22;23796;51.458;7.000;2023-07-28T14:17:40;25.60;80.70
37974;DHT22;23796;51.458;7.000;2023-07-28T14:20:07;25.60;81.00
37974;DHT22;23796;51.458;7.000;2023-07-28T14:22:33;25.90;79.70
37974;DHT22;23796;51.458;7.000;2023-07-28T14:24:59;26.10;79.70
37974;DHT22;23796;51.458;7.000;2023-07-28T14:27:25;26.40;79.10
37974;DHT22;23796;51.458;7.000;2023-07-28T14:29:50;26.90;78.60
37974;DHT22;23796;51.458;7.000;2023-07-28T14:32:16;26.70;78.20
37974;DHT22;23796;51.458;7.000;2023-07-28T14:34:42;26.60;78.40
37974;DHT22;23796;51.458;7.000;2023-07-28T14:37:09;26.40;78.50
37974;DHT22;23796;51.458;7.000;2023-07-28T14:39:36;26.40;78.50
37974;DHT22;23796;51.458;7.000;2023-07-28T14:42:02;26.70;78.50
37974;DHT22;23796;51.458;7.000;2023-07-28T14:44:28;27.00;77.70
37974;DHT22;23796;51.458;7.000;2023-07-28T14:46:54;26.70;78.10
37974;DHT22;23796;51.458;7.000;2023-07-28T14:49:20;26.80;77.90
37974;DHT22;23796;51.458;7.000;2023-07-28T14:51:46;26.80;77.80
37974;DHT22;23796;51.458;7.000;2023-07-28T14:54:11;26.60;78.60
37974;DHT22;23796;51.458;7.000;2023-07-28T14:56:37;26.50;78.90
37974;DHT22;23796;51.458;7.000;2023-07-28T14:59:05;26.40;79.40
37974;DHT22;23796;51.458;7.000;2023-07-28T15:01:31;26.50;79.50
37974;DHT22;23796;51.458;7.000;2023-07-28T15:03:58;26.30;79.80
37974;DHT22;23796;51.458;7.000;2023-07-28T15:06:24;26.20;80.20
37974;DHT22;23796;51.458;7.000;2023-07-28T15:08:52;26.10;80.10
37974;DHT22;23796;51.458;7.000;2023-07-28T15:11:17;26.00;80.20
37974;DHT22;23796;51.458;7.000;2023-07-28T15:13:43;25.90;80.60
37974;DHT22;23796;51.458;7.000;2023-07-28T15:16:10;25.80;81.00
37974;DHT22;23796;51.458;7.000;2023-07-28T15:18:35;25.60;81.30
37974;DHT22;23796;51.458;7.000;2023-07-28T15:21:03;25.50;81.40
37974;DHT22;23796;51.458;7.000;2023-07-28T15:23:28;25.30;82.10
37974;DHT22;23796;51.458;7.000;2023-07-28T15:25:54;25.00;83.10
37974;DHT22;23796;51.458;7.000;2023-07-28T15:28:23;24.80;83.70
37974;DHT22;23796;51.458;7.000;2023-07-28T15:30:49;24.70;84.00
37974;DHT22;23796;51.458;7.000;2023-07-28T15:33:20;24.60;84.90
37974;DHT22;23796;51.458;7.000;2023-07-28T15:35:47;24.60;85.10
37974;DHT22;23796;51.458;7.000;2023-07-28T15:38:13;24.50;85.00
37974;DHT22;23796;51.458;7.000;2023-07-28T15:40:39;24.40;85.80
37974;DHT22;23796;51.458;7.000;2023-07-28T15:43:07;24.30;86.00
37974;DHT22;23796;51.458;7.000;2023-07-28T15:45:33;24.30;86.10